createdAt,value
2023-05-05T00:01:07.477Z,16.70
2023-05-05T00:03:37.875Z,16.70
2023-05-05T00:06:08.732Z,16.60
2023-05-05T00:08:40.172Z,16.70
2023-05-05T00:11:09.896Z,16.60
2023-05-05T00:13:40.328Z,16.70
2023-05-05T00:16:10.539Z,16.50
2023-05-05T00:18:40.146Z,16.30
2023-05-05T00:21:09.748Z,16.50
2023-05-05T00:23:41.393Z,16.20
2023-05-05T00:26:11.128Z,16.10
2023-05-05T00:28:41.335Z,16.00
2023-05-05T00:31:11.193Z,16.20
2023-05-05T00:33:41.058Z,16.00
2023-05-05T00:36:11.288Z,16.20
2023-05-05T00:38:42.536Z,16.00
2023-05-05T00:41:12.561Z,15.90
2023-05-05T00:43:42.454Z,16.10
2023-05-05T00:46:20.206Z,16.20
2023-05-05T00:48:50.096Z,16.00
2023-05-05T00:51:21.437Z,16.00
2023-05-05T00:53:53.196Z,15.30
2023-05-05T00:56:25.144Z,15.90
2023-05-05T00:58:55.475Z,15.80
2023-05-05T01:01:25.298Z,15.70
2023-05-05T01:03:56.122Z,15.80
2023-05-05T01:06:44.248Z,15.60
2023-05-05T01:09:25.543Z,15.80
2023-05-05T01:12:03.273Z,15.70
2023-05-05T01:14:41.255Z,15.60
2023-05-05T01:17:18.220Z,15.70
2023-05-05T01:20:10.869Z,15.70
2023-05-05T01:22:44.566Z,15.70
2023-05-05T01:25:44.997Z,15.60
2023-05-05T01:28:29.883Z,15.30
2023-05-05T01:31:18.744Z,15.50
2023-05-05T01:33:52.634Z,15.60
2023-05-05T01:36:26.766Z,15.60
2023-05-05T01:38:59.928Z,15.70
2023-05-05T01:41:33.927Z,15.90
2023-05-05T01:44:06.935Z,15.90
2023-05-05T01:46:38.268Z,15.90
2023-05-05T01:49:13.499Z,15.70
2023-05-05T01:51:44.446Z,15.70
2023-05-05T01:54:15.488Z,15.80
2023-05-05T01:56:46.627Z,15.80
2023-05-05T01:59:17.470Z,15.80
2023-05-05T02:01:49.009Z,15.70
2023-05-05T02:04:23.137Z,15.90
2023-05-05T02:06:55.704Z,15.70
2023-05-05T02:09:28.591Z,15.70
2023-05-05T02:12:00.871Z,15.70
2023-05-05T02:14:32.514Z,15.70
2023-05-05T02:17:02.638Z,15.70
2023-05-05T02:19:43.826Z,15.70
2023-05-05T02:22:16.924Z,15.70
2023-05-05T02:24:47.232Z,15.70
2023-05-05T02:27:20.836Z,15.70
2023-05-05T02:29:53.714Z,15.90
2023-05-05T02:32:29.768Z,15.70
2023-05-05T02:35:04.613Z,15.60
2023-05-05T02:37:37.905Z,15.70
2023-05-05T02:40:09.588Z,15.60
2023-05-05T02:42:42.562Z,15.60
2023-05-05T02:45:17.743Z,15.50
2023-05-05T02:47:51.001Z,15.50
2023-05-05T02:50:23.137Z,15.30
2023-05-05T02:53:12.919Z,15.30
2023-05-05T02:55:48.953Z,15.10
2023-05-05T02:58:25.752Z,15.30
2023-05-05T03:01:05.311Z,15.30
2023-05-05T03:03:42.667Z,15.30
2023-05-05T03:06:19.679Z,15.30
2023-05-05T03:08:58.268Z,15.40
2023-05-05T03:11:34.937Z,15.30
2023-05-05T03:14:10.849Z,15.40
2023-05-05T03:16:44.282Z,15.40
2023-05-05T03:19:18.405Z,15.40
2023-05-05T03:21:52.825Z,15.40
2023-05-05T03:24:23.256Z,15.40
2023-05-05T03:27:03.471Z,15.40
2023-05-05T03:29:38.237Z,15.30
2023-05-05T03:32:12.371Z,15.50
2023-05-05T03:34:43.507Z,15.40
2023-05-05T03:37:14.552Z,15.40
2023-05-05T03:39:45.358Z,15.30
2023-05-05T03:42:15.075Z,15.30
2023-05-05T03:44:44.995Z,15.30
2023-05-05T03:47:14.808Z,15.10
2023-05-05T03:49:44.987Z,15.00
2023-05-05T03:52:16.679Z,15.30
2023-05-05T03:54:47.826Z,15.20
2023-05-05T03:57:17.625Z,15.10
2023-05-05T03:59:47.565Z,15.20
2023-05-05T04:02:18.906Z,15.00
2023-05-05T04:04:49.829Z,14.90
2023-05-05T04:07:23.228Z,14.80
2023-05-05T04:09:52.972Z,15.00
2023-05-05T04:12:23.160Z,15.00
2023-05-05T04:14:52.870Z,15.00
2023-05-05T04:17:22.990Z,15.00
2023-05-05T04:19:52.801Z,14.80
2023-05-05T04:22:24.153Z,15.00
2023-05-05T04:24:53.860Z,15.00
2023-05-05T04:27:26.534Z,15.20
2023-05-05T04:29:56.870Z,15.10
2023-05-05T04:32:27.554Z,15.20
2023-05-05T04:34:57.706Z,15.10
2023-05-05T04:37:29.779Z,15.10
2023-05-05T04:40:01.020Z,15.00
2023-05-05T04:42:31.855Z,14.70
2023-05-05T04:45:02.002Z,14.60
2023-05-05T04:47:32.928Z,14.80
2023-05-05T04:50:03.351Z,14.80
2023-05-05T04:52:34.811Z,14.90
2023-05-05T04:55:04.852Z,14.70
2023-05-05T04:57:36.253Z,14.80
2023-05-05T05:00:07.300Z,14.80
2023-05-05T05:02:38.060Z,14.90
2023-05-05T05:05:08.822Z,14.90
2023-05-05T05:07:40.043Z,15.20
2023-05-05T05:10:11.147Z,15.30
2023-05-05T05:12:40.924Z,15.50
2023-05-05T05:15:12.215Z,15.80
2023-05-05T05:17:42.164Z,16.00
2023-05-05T05:20:12.562Z,16.10
2023-05-05T05:22:43.705Z,16.10
2023-05-05T05:25:18.137Z,16.30
2023-05-05T05:27:58.527Z,16.50
2023-05-05T05:30:33.514Z,16.50
2023-05-05T05:33:03.782Z,16.50
2023-05-05T05:35:34.258Z,16.90
2023-05-05T05:38:06.336Z,16.70
2023-05-05T05:40:36.848Z,16.70
2023-05-05T05:43:06.868Z,16.60
2023-05-05T05:45:38.409Z,16.80
2023-05-05T05:48:09.609Z,16.80
2023-05-05T05:50:40.321Z,16.90
2023-05-05T05:53:11.750Z,17.00
2023-05-05T05:55:41.968Z,17.00
2023-05-05T05:58:12.333Z,17.30
2023-05-05T06:00:42.830Z,17.10
2023-05-05T06:03:14.839Z,17.20
2023-05-05T06:05:44.697Z,17.20
2023-05-05T06:08:16.243Z,17.30
2023-05-05T06:10:50.974Z,17.10
2023-05-05T06:13:22.737Z,17.10
2023-05-05T06:15:55.365Z,17.10
2023-05-05T06:18:26.103Z,17.20
2023-05-05T06:20:55.946Z,17.30
2023-05-05T06:23:31.193Z,17.30
2023-05-05T06:26:05.613Z,17.50
2023-05-05T06:28:35.383Z,17.30
2023-05-05T06:31:05.471Z,17.40
2023-05-05T06:33:35.377Z,17.60
2023-05-05T06:36:05.696Z,17.70
2023-05-05T06:38:37.025Z,17.60
2023-05-05T06:41:07.150Z,17.70
2023-05-05T06:43:37.066Z,17.80
2023-05-05T06:46:10.563Z,17.90
2023-05-05T06:48:40.320Z,17.90
2023-05-05T06:51:11.213Z,17.80
2023-05-05T06:53:42.769Z,17.80
2023-05-05T06:56:13.195Z,17.90
2023-05-05T06:58:42.999Z,18.10
2023-05-05T07:01:12.928Z,18.00
2023-05-05T07:03:43.051Z,18.20
2023-05-05T07:06:12.767Z,18.20
2023-05-05T07:08:44.202Z,18.20
2023-05-05T07:11:14.171Z,18.30
2023-05-05T07:13:44.028Z,18.20
2023-05-05T07:16:13.737Z,18.30
2023-05-05T07:18:43.344Z,18.40
2023-05-05T07:21:13.368Z,18.40
2023-05-05T07:23:46.769Z,18.70
2023-05-05T07:26:16.866Z,18.70
2023-05-05T07:28:46.896Z,18.70
2023-05-05T07:31:16.644Z,18.80
2023-05-05T07:33:46.511Z,18.80
2023-05-05T07:36:16.211Z,18.70
2023-05-05T07:38:50.132Z,18.90
2023-05-05T07:41:20.572Z,18.80
2023-05-05T07:43:50.256Z,19.00
2023-05-05T07:46:20.628Z,19.20
2023-05-05T07:48:50.906Z,19.20
2023-05-05T07:51:21.864Z,19.50
2023-05-05T07:53:53.718Z,19.40
2023-05-05T07:56:23.718Z,19.30
2023-05-05T07:58:53.228Z,19.40
2023-05-05T08:01:22.936Z,19.50
2023-05-05T08:03:52.827Z,19.50
2023-05-05T08:06:23.988Z,19.70
2023-05-05T08:08:55.565Z,19.80
2023-05-05T08:11:25.062Z,19.70
2023-05-05T08:13:54.771Z,19.80
2023-05-05T08:16:24.357Z,19.80
2023-05-05T08:18:54.487Z,20.00
2023-05-05T08:21:24.408Z,20.00
2023-05-05T08:23:55.651Z,19.80
2023-05-05T08:26:25.557Z,20.20
2023-05-05T08:29:01.114Z,20.40
2023-05-05T08:31:31.688Z,20.60
2023-05-05T08:34:01.661Z,20.20
2023-05-05T08:36:31.570Z,20.60
2023-05-05T08:39:03.429Z,20.80
2023-05-05T08:41:33.863Z,20.80
2023-05-05T08:44:04.303Z,20.80
2023-05-05T08:46:34.146Z,21.10
2023-05-05T08:49:05.235Z,21.00
2023-05-05T08:51:43.141Z,21.00
2023-05-05T08:54:20.727Z,21.10
2023-05-05T08:56:52.696Z,21.20
2023-05-05T08:59:25.691Z,20.80
2023-05-05T09:01:57.369Z,21.10
2023-05-05T09:04:27.659Z,21.00
2023-05-05T09:07:00.285Z,20.60
2023-05-05T09:09:32.297Z,20.90
2023-05-05T09:12:03.335Z,21.20
2023-05-05T09:14:33.152Z,21.10
2023-05-05T09:17:04.688Z,21.20
2023-05-05T09:19:34.630Z,21.50
2023-05-05T09:22:04.656Z,21.40
2023-05-05T09:24:36.014Z,21.60
2023-05-05T09:27:25.356Z,21.10
2023-05-05T09:29:56.806Z,20.90
2023-05-05T09:32:29.120Z,21.00
2023-05-05T09:35:01.339Z,21.20
2023-05-05T09:37:31.870Z,21.60
2023-05-05T09:40:04.297Z,21.40
2023-05-05T09:42:33.847Z,21.50
2023-05-05T09:45:03.968Z,21.70
2023-05-05T09:47:37.657Z,21.90
2023-05-05T09:50:08.499Z,21.90
2023-05-05T09:52:38.825Z,22.00
2023-05-05T09:55:19.914Z,21.90
2023-05-05T09:57:49.517Z,21.90
2023-05-05T10:00:19.927Z,21.90
2023-05-05T10:02:49.687Z,22.00
2023-05-05T10:05:20.692Z,22.00
2023-05-05T10:07:50.816Z,21.90
2023-05-05T10:10:22.196Z,22.00
2023-05-05T10:12:53.712Z,21.70
2023-05-05T10:15:25.368Z,22.20
2023-05-05T10:18:06.641Z,22.40
2023-05-05T10:20:40.445Z,22.20
2023-05-05T10:23:12.502Z,22.00
2023-05-05T10:25:48.571Z,21.90
2023-05-05T10:28:30.780Z,22.20
2023-05-05T10:31:12.761Z,22.20
2023-05-05T10:33:54.114Z,22.80
2023-05-05T10:36:24.796Z,23.00
2023-05-05T10:38:58.701Z,22.90
2023-05-05T10:41:32.508Z,22.80
2023-05-05T10:44:04.634Z,22.60
2023-05-05T10:46:35.940Z,22.50
2023-05-05T10:49:15.759Z,23.30
2023-05-05T10:51:54.083Z,22.90
2023-05-05T10:54:30.161Z,23.40
2023-05-05T10:57:05.173Z,23.70
2023-05-05T10:59:45.013Z,23.50
2023-05-05T11:02:26.353Z,23.20
2023-05-05T11:05:10.159Z,23.30
2023-05-05T11:07:40.252Z,23.30
2023-05-05T11:10:11.665Z,23.60
2023-05-05T11:13:22.744Z,23.80
2023-05-05T11:15:54.644Z,23.80
2023-05-05T11:18:36.392Z,23.70
2023-05-05T11:21:19.356Z,23.60
2023-05-05T11:23:50.806Z,23.60
2023-05-05T11:26:51.247Z,24.40
2023-05-05T11:29:23.090Z,24.10
2023-05-05T11:32:14.208Z,24.20
2023-05-05T11:34:51.287Z,24.50
2023-05-05T11:37:25.912Z,24.70
2023-05-05T11:40:09.677Z,24.40
2023-05-05T11:42:39.669Z,24.90
2023-05-05T11:45:24.451Z,24.20
2023-05-05T11:47:54.997Z,24.20
2023-05-05T11:50:25.081Z,24.10
2023-05-05T11:52:54.998Z,24.40
2023-05-05T11:55:25.211Z,24.40
2023-05-05T11:57:54.925Z,25.10
2023-05-05T12:00:35.927Z,24.50
2023-05-05T12:03:06.735Z,24.50
2023-05-05T12:05:38.696Z,24.20
2023-05-05T12:08:08.711Z,24.70
2023-05-05T12:10:38.326Z,24.90
2023-05-05T12:13:21.175Z,25.30
2023-05-05T12:15:57.006Z,25.70
2023-05-05T12:18:26.902Z,25.10
2023-05-05T12:20:56.505Z,24.50
2023-05-05T12:23:30.509Z,24.70
2023-05-05T12:26:00.551Z,25.40
2023-05-05T12:28:47.451Z,25.40
2023-05-05T12:31:21.077Z,25.80
2023-05-05T12:33:52.394Z,25.70
2023-05-05T12:36:22.723Z,26.00
2023-05-05T12:38:52.642Z,25.60
2023-05-05T12:41:22.754Z,26.60
2023-05-05T12:43:58.013Z,25.60
2023-05-05T12:46:32.311Z,26.30
2023-05-05T12:49:05.706Z,25.40
2023-05-05T12:51:36.438Z,25.50
2023-05-05T12:54:08.106Z,25.70
2023-05-05T12:56:39.446Z,26.30
2023-05-05T12:59:11.103Z,25.60
2023-05-05T13:01:51.948Z,26.40
2023-05-05T13:04:23.456Z,25.80
2023-05-05T13:07:11.972Z,25.80
2023-05-05T13:09:42.406Z,26.80
2023-05-05T13:12:13.032Z,26.80
2023-05-05T13:14:43.455Z,27.50
2023-05-05T13:17:15.408Z,28.10
2023-05-05T13:19:46.831Z,28.20
2023-05-05T13:22:16.900Z,26.60
2023-05-05T13:24:52.475Z,26.20
2023-05-05T13:27:22.760Z,25.90
2023-05-05T13:29:52.565Z,26.60
2023-05-05T13:32:24.060Z,26.40
2023-05-05T13:34:53.926Z,26.30
2023-05-05T13:37:23.550Z,27.30
2023-05-05T13:39:53.553Z,28.10
2023-05-05T13:42:23.372Z,28.90
2023-05-05T13:44:53.276Z,27.70
2023-05-05T13:47:24.686Z,27.40
2023-05-05T13:49:54.553Z,27.40
2023-05-05T13:52:24.357Z,26.90
2023-05-05T13:54:54.165Z,26.70
2023-05-05T13:57:24.086Z,27.00
2023-05-05T13:59:53.799Z,27.70
2023-05-05T14:02:25.533Z,26.90
2023-05-05T14:04:55.257Z,28.70
2023-05-05T14:07:25.093Z,29.50
2023-05-05T14:09:55.086Z,30.50
2023-05-05T14:12:25.050Z,29.80
2023-05-05T14:14:54.914Z,28.20
2023-05-05T14:17:26.065Z,27.80
2023-05-05T14:19:56.188Z,27.90
2023-05-05T14:22:26.195Z,27.70
2023-05-05T14:24:56.004Z,29.20
2023-05-05T14:27:25.715Z,29.60
2023-05-05T14:29:55.464Z,27.90
2023-05-05T14:32:27.085Z,27.60
2023-05-05T14:34:57.096Z,28.00
2023-05-05T14:37:27.149Z,28.30
2023-05-05T14:39:57.031Z,27.40
2023-05-05T14:42:27.905Z,27.80
2023-05-05T14:44:57.874Z,28.30
2023-05-05T14:47:29.330Z,27.60
2023-05-05T14:49:59.387Z,27.80
2023-05-05T14:52:29.045Z,28.20
2023-05-05T14:54:59.361Z,27.70
2023-05-05T14:57:29.185Z,28.30
2023-05-05T14:59:59.106Z,28.30
2023-05-05T15:02:30.526Z,29.30
2023-05-05T15:05:00.461Z,28.80
2023-05-05T15:07:30.285Z,27.90
2023-05-05T15:09:59.986Z,27.30
2023-05-05T15:12:30.776Z,27.50
2023-05-05T15:15:00.855Z,28.40
2023-05-05T15:17:32.812Z,27.80
2023-05-05T15:20:04.196Z,28.10
2023-05-05T15:22:34.060Z,27.50
2023-05-05T15:25:03.881Z,27.10
2023-05-05T15:27:33.379Z,26.80
2023-05-05T15:30:03.038Z,27.30
2023-05-05T15:32:34.564Z,27.60
2023-05-05T15:35:04.446Z,27.70
2023-05-05T15:37:34.464Z,28.60
2023-05-05T15:40:05.828Z,29.10
2023-05-05T15:42:35.829Z,27.80
2023-05-05T15:45:06.733Z,27.50
2023-05-05T15:47:41.882Z,27.70
2023-05-05T15:50:12.845Z,27.00
2023-05-05T15:52:42.963Z,26.70
2023-05-05T15:55:13.504Z,27.00
2023-05-05T15:57:43.407Z,26.60
2023-05-05T16:00:14.127Z,26.80
2023-05-05T16:02:45.650Z,27.00
2023-05-05T16:05:16.225Z,27.30
2023-05-05T16:07:46.192Z,27.20
2023-05-05T16:10:16.076Z,27.50
2023-05-05T16:12:46.240Z,28.00
2023-05-05T16:15:15.893Z,28.10
2023-05-05T16:17:47.239Z,27.70
2023-05-05T16:20:17.038Z,27.10
2023-05-05T16:22:46.647Z,27.20
2023-05-05T16:25:18.820Z,26.90
2023-05-05T16:27:48.637Z,26.40
2023-05-05T16:30:18.332Z,26.60
2023-05-05T16:32:51.685Z,26.60
2023-05-05T16:35:23.177Z,25.90
2023-05-05T16:37:53.200Z,25.40
2023-05-05T16:40:23.315Z,24.90
2023-05-05T16:42:53.470Z,25.20
2023-05-05T16:45:24.696Z,25.30
2023-05-05T16:47:57.012Z,25.80
2023-05-05T16:50:27.174Z,26.40
2023-05-05T16:52:57.102Z,26.50
2023-05-05T16:55:26.927Z,26.40
2023-05-05T16:57:56.808Z,26.80
2023-05-05T17:00:26.522Z,26.60
2023-05-05T17:02:58.104Z,25.80
2023-05-05T17:05:28.127Z,26.70
2023-05-05T17:07:57.907Z,26.60
2023-05-05T17:10:27.516Z,26.80
2023-05-05T17:12:57.060Z,26.60
2023-05-05T17:15:27.024Z,26.30
2023-05-05T17:17:58.388Z,26.10
2023-05-05T17:20:28.286Z,25.90
2023-05-05T17:22:58.107Z,25.60
2023-05-05T17:25:28.529Z,25.20
2023-05-05T17:27:58.647Z,24.70
2023-05-05T17:30:28.872Z,24.40
2023-05-05T17:33:01.455Z,24.30
2023-05-05T17:35:31.350Z,24.10
2023-05-05T17:38:02.252Z,24.00
2023-05-05T17:40:32.109Z,23.90
2023-05-05T17:43:01.922Z,23.90
2023-05-05T17:45:31.779Z,23.80
2023-05-05T17:48:03.078Z,23.80
2023-05-05T17:50:32.672Z,23.50
2023-05-05T17:53:02.320Z,23.30
2023-05-05T17:55:32.318Z,23.30
2023-05-05T17:58:01.820Z,23.50
2023-05-05T18:00:31.330Z,23.20
2023-05-05T18:03:02.846Z,22.70
2023-05-05T18:05:32.790Z,23.30
2023-05-05T18:08:02.923Z,23.10
2023-05-05T18:10:32.712Z,23.00
2023-05-05T18:13:02.861Z,22.80
2023-05-05T18:15:33.406Z,22.90
2023-05-05T18:33:07.868Z,22.90
2023-05-05T18:35:37.601Z,22.20
2023-05-05T18:45:38.590Z,22.10
2023-05-05T18:48:10.837Z,22.10
2023-05-05T18:50:40.868Z,21.80
2023-05-05T19:15:45.449Z,21.80
2023-05-05T19:18:16.789Z,21.80
2023-05-05T19:20:46.895Z,21.90
2023-05-05T19:23:17.231Z,22.00
2023-05-05T19:25:47.049Z,22.10
2023-05-05T19:28:16.948Z,21.90
2023-05-05T19:30:49.047Z,21.80
2023-05-05T19:33:20.485Z,21.90
2023-05-05T19:35:50.387Z,22.00
2023-05-05T19:38:20.408Z,21.80
2023-05-05T19:40:50.006Z,21.60
2023-05-05T19:43:19.604Z,21.50
2023-05-05T19:45:51.509Z,21.60
2023-05-05T19:48:23.126Z,21.40
2023-05-05T19:50:53.549Z,21.40
2023-05-05T19:53:24.816Z,21.40
2023-05-05T19:55:54.722Z,21.40
2023-05-05T19:58:24.828Z,21.30
2023-05-05T20:00:54.950Z,21.00
2023-05-05T20:03:26.889Z,20.90
2023-05-05T20:05:57.138Z,20.80
2023-05-05T20:08:29.610Z,20.90
2023-05-05T20:10:59.525Z,21.00
2023-05-05T20:13:29.445Z,20.90
2023-05-05T20:15:59.427Z,20.60
2023-05-05T20:18:30.805Z,20.60
2023-05-05T20:21:00.707Z,20.50
2023-05-05T20:23:30.730Z,20.40
2023-05-05T20:26:00.672Z,20.40
2023-05-05T20:28:30.571Z,20.50
2023-05-05T20:31:01.190Z,20.40
2023-05-05T20:33:32.557Z,20.30
2023-05-05T20:36:02.366Z,20.30
2023-05-05T20:38:32.163Z,20.20
2023-05-05T20:41:02.005Z,20.20
2023-05-05T20:43:31.911Z,20.30
2023-05-05T20:46:03.132Z,20.50
2023-05-05T20:48:34.178Z,20.40
2023-05-05T20:51:05.996Z,20.30
2023-05-05T20:53:35.864Z,20.20
2023-05-05T20:56:06.425Z,20.20
2023-05-05T20:58:37.849Z,20.10
2023-05-05T21:01:07.734Z,20.20
2023-05-05T21:03:39.412Z,20.00
2023-05-05T21:06:09.127Z,19.90
2023-05-05T21:08:39.952Z,19.80
2023-05-05T21:11:11.708Z,19.80
2023-05-05T21:13:41.407Z,19.90
2023-05-05T21:16:11.706Z,19.70
2023-05-05T21:18:47.112Z,19.60
2023-05-05T21:21:16.886Z,19.70
2023-05-05T21:23:49.367Z,19.50
2023-05-05T21:26:19.381Z,19.40
2023-05-05T21:28:49.207Z,19.20
2023-05-05T21:31:22.288Z,19.30
2023-05-05T21:33:54.658Z,19.30
2023-05-05T21:36:25.078Z,19.50
2023-05-05T21:38:57.767Z,19.20
2023-05-05T21:41:28.981Z,19.20
2023-05-05T21:43:59.752Z,19.30
2023-05-05T21:46:29.699Z,19.30
2023-05-05T21:49:01.310Z,19.30
2023-05-05T21:51:31.527Z,19.30
2023-05-05T21:54:01.242Z,19.30
2023-05-05T21:56:30.642Z,19.20
2023-05-05T21:59:00.342Z,19.20
2023-05-05T22:01:30.217Z,19.30
2023-05-05T22:04:01.658Z,19.00
2023-05-05T22:06:32.852Z,19.20
2023-05-05T22:09:02.776Z,19.10
2023-05-05T22:11:32.473Z,18.80
2023-05-05T22:14:02.092Z,18.90
2023-05-05T22:16:31.782Z,19.30
2023-05-05T22:19:03.054Z,19.20
2023-05-05T22:21:32.649Z,19.10
2023-05-05T22:24:02.470Z,19.30
2023-05-05T22:26:32.279Z,19.00
2023-05-05T22:29:01.886Z,19.30
2023-05-05T22:31:31.512Z,19.20
2023-05-05T22:34:02.839Z,18.90
2023-05-05T22:36:32.971Z,19.00
2023-05-05T22:39:03.075Z,19.00
2023-05-05T22:41:33.389Z,18.90
2023-05-05T22:44:03.208Z,18.80
2023-05-05T22:46:33.191Z,18.80
2023-05-05T22:49:04.540Z,18.80
2023-05-05T22:51:34.594Z,18.80
2023-05-05T22:54:04.191Z,18.80
2023-05-05T22:56:34.003Z,18.90
2023-05-05T22:59:03.817Z,18.90
2023-05-05T23:01:35.563Z,18.80
2023-05-05T23:04:08.497Z,18.80
2023-05-05T23:06:40.121Z,18.60
2023-05-05T23:09:10.238Z,18.70
2023-05-05T23:11:40.055Z,18.50
2023-05-05T23:14:09.856Z,18.50
2023-05-05T23:16:39.488Z,18.50
2023-05-05T23:19:10.983Z,18.50
2023-05-05T23:21:52.157Z,18.90
2023-05-05T23:24:23.968Z,18.40
2023-05-05T23:26:53.773Z,18.60
2023-05-05T23:29:23.690Z,18.50
2023-05-05T23:31:53.301Z,18.10
2023-05-05T23:34:24.842Z,18.10
2023-05-05T23:36:54.534Z,18.10
2023-05-05T23:39:24.153Z,18.10
2023-05-05T23:41:53.970Z,18.20
2023-05-05T23:44:23.780Z,18.50
2023-05-05T23:46:53.603Z,18.40
2023-05-05T23:49:26.939Z,18.40
2023-05-05T23:51:58.847Z,18.70
2023-05-05T23:54:28.561Z,18.60
2023-05-05T23:56:59.086Z,18.70
2023-05-05T23:59:28.898Z,18.40
